Time;durP1;ratioP1;P1;durP2;ratioP2;P2;SDS_P1;SDS_P2;PMS_P1;PMS_P2;Temp;Humidity;BMP_temperature;BMP_pressure;BME280_temperature;BME280_humidity;BME280_pressure;Samples;Min_cycle;Max_cycle;Signal;HPM_P1;HPM_P2
2021/03/17 00:01:08;0.00;0.00;0.62;0.00;0.00;0.62;1.30;0.80;;;22.60;24.50;;;;;;2245051;61;20790;-67
2021/03/17 00:04:11;0.00;0.00;0.62;0.00;0.00;0.62;1.50;0.80;;;22.60;24.50;;;;;;2245141;61;20415;-65
2021/03/17 00:07:15;0.00;0.00;0.62;0.00;0.00;0.62;1.20;0.70;;;22.60;24.50;;;;;;2245446;61;20400;-66
2021/03/17 00:10:20;0.00;0.00;0.62;0.00;0.00;0.62;1.97;0.97;;;22.60;24.50;;;;;;2243679;61;20383;-68
2021/03/17 00:13:25;0.00;0.00;0.62;0.00;0.00;0.62;1.53;0.70;;;22.60;24.50;;;;;;2246104;61;20365;-66
2021/03/17 00:16:28;0.00;0.00;0.62;0.00;0.00;0.62;1.70;0.87;;;22.60;24.60;;;;;;2245168;61;20399;-67
2021/03/17 00:19:33;0.00;0.00;0.62;0.00;0.00;0.62;1.30;0.70;;;22.60;24.70;;;;;;2245856;61;20420;-64
2021/03/17 00:22:37;0.00;0.00;0.62;0.00;0.00;0.62;1.53;0.80;;;22.60;24.70;;;;;;2245326;61;20367;-64
2021/03/17 00:25:42;0.00;0.00;0.62;0.00;0.00;0.62;1.20;0.70;;;22.60;24.70;;;;;;2245353;61;20462;-63
2021/03/17 00:28:45;0.00;0.00;0.62;0.00;0.00;0.62;3.40;1.10;;;22.60;24.60;;;;;;2245792;61;20466;-64
2021/03/17 00:31:49;0.00;0.00;0.62;0.00;0.00;0.62;1.70;0.97;;;22.60;24.70;;;;;;2244842;61;20446;-64
2021/03/17 00:34:53;0.00;0.00;0.62;0.00;0.00;0.62;1.30;0.70;;;22.60;24.50;;;;;;2245561;61;20474;-62
2021/03/17 00:37:56;0.00;0.00;0.62;0.00;0.00;0.62;1.53;0.83;;;22.60;24.40;;;;;;2245500;61;20840;-66
2021/03/17 00:41:01;0.00;0.00;0.62;0.00;0.00;0.62;3.20;0.90;;;22.60;24.30;;;;;;2245121;61;20733;-66
2021/03/17 00:44:05;0.00;0.00;0.62;0.00;0.00;0.62;1.33;0.80;;;22.60;24.30;;;;;;2245267;61;20434;-63
2021/03/17 00:47:08;0.00;0.00;0.62;0.00;0.00;0.62;6.03;0.90;;;22.60;24.20;;;;;;2244723;61;20369;-65
2021/03/17 00:49:53;0.00;0.00;0.62;0.00;0.00;0.62;1.40;0.87;;;22.50;24.10;;;;;;2245321;61;20612;-63
2021/03/17 00:52:42;0.00;0.00;0.62;0.00;0.00;0.62;2.30;1.20;;;22.50;24.10;;;;;;2245150;61;20373;-62
2021/03/17 00:55:35;0.00;0.00;0.62;0.00;0.00;0.62;1.97;1.03;;;22.50;24.00;;;;;;2247371;61;20388;-64
2021/03/17 00:58:36;0.00;0.00;0.62;0.00;0.00;0.62;1.43;0.90;;;22.50;24.00;;;;;;2247498;61;20427;-64
2021/03/17 01:01:20;0.00;0.00;0.62;0.00;0.00;0.62;2.33;1.10;;;22.50;24.50;;;;;;2247055;61;20403;-63
2021/03/17 01:04:06;0.00;0.00;0.62;0.00;0.00;0.62;1.50;0.90;;;22.40;23.90;;;;;;2245280;61;20373;-65
2021/03/17 01:06:50;0.00;0.00;0.62;0.00;0.00;0.62;1.87;1.00;;;22.40;23.80;;;;;;2244865;61;20459;-66
2021/03/17 01:09:35;0.00;0.00;0.62;0.00;0.00;0.62;2.73;0.97;;;22.40;23.80;;;;;;2244769;61;20408;-63
2021/03/17 01:12:20;0.00;0.00;0.62;0.00;0.00;0.62;1.60;0.77;;;22.40;23.80;;;;;;2245211;61;20440;-66
2021/03/17 01:15:09;0.00;0.00;0.62;0.00;0.00;0.62;3.10;0.90;;;22.40;23.70;;;;;;2245069;61;20488;-63
2021/03/17 01:17:54;0.00;0.00;0.62;0.00;0.00;0.62;1.63;1.00;;;22.30;23.70;;;;;;2244722;61;20400;-64
2021/03/17 01:20:39;0.00;0.00;0.62;0.00;0.00;0.62;1.80;1.00;;;22.30;23.70;;;;;;2245461;61;20385;-64
2021/03/17 01:23:24;0.00;0.00;0.62;0.00;0.00;0.62;1.63;0.87;;;22.30;23.60;;;;;;2244973;61;20367;-62
2021/03/17 01:26:09;0.00;0.00;0.62;0.00;0.00;0.62;2.47;1.10;;;22.30;23.60;;;;;;2245331;61;20368;-64
2021/03/17 01:28:53;0.00;0.00;0.62;0.00;0.00;0.62;2.07;1.00;;;22.30;23.60;;;;;;2245252;61;20771;-66
2021/03/17 01:31:39;0.00;0.00;0.62;0.00;0.00;0.62;2.07;1.10;;;22.30;23.60;;;;;;2244661;61;20371;-62
2021/03/17 01:34:23;0.00;0.00;0.62;0.00;0.00;0.62;1.40;0.90;;;22.20;23.50;;;;;;2245143;61;20372;-66
2021/03/17 01:37:08;0.00;0.00;0.62;0.00;0.00;0.62;1.70;0.77;;;22.20;24.10;;;;;;2244942;61;20440;-62
2021/03/17 01:39:52;0.00;0.00;0.62;0.00;0.00;0.62;1.40;0.80;;;22.20;23.50;;;;;;2244843;61;20588;-66
2021/03/17 01:42:37;0.00;0.00;0.62;0.00;0.00;0.62;1.80;0.80;;;22.20;23.60;;;;;;2245185;61;20772;-66
2021/03/17 01:45:22;0.00;0.00;0.62;0.00;0.00;0.62;2.17;0.90;;;22.10;23.50;;;;;;2244955;61;20390;-64
2021/03/17 01:48:09;0.00;0.00;0.62;0.00;0.00;0.62;2.63;1.00;;;22.10;23.50;;;;;;2244836;61;20440;-61
2021/03/17 01:50:57;0.00;0.00;0.62;0.00;0.00;0.62;3.73;1.03;;;22.10;23.50;;;;;;2245309;61;20368;-64
2021/03/17 01:53:42;0.00;0.00;0.62;0.00;0.00;0.62;3.40;0.90;;;22.10;23.50;;;;;;2244024;61;20455;-63
2021/03/17 01:56:27;0.00;0.00;0.62;0.00;0.00;0.62;1.40;0.73;;;22.10;23.50;;;;;;2245197;61;20396;-63
2021/03/17 01:59:11;0.00;0.00;0.62;0.00;0.00;0.62;1.90;1.00;;;22.10;23.50;;;;;;2244922;61;20389;-63
2021/03/17 02:01:58;0.00;0.00;0.62;0.00;0.00;0.62;2.03;0.90;;;22.00;23.40;;;;;;2245002;61;20395;-65
2021/03/17 02:04:43;0.00;0.00;0.62;0.00;0.00;0.62;1.30;0.80;;;22.00;23.40;;;;;;2245882;61;20368;-63
2021/03/17 02:07:27;0.00;0.00;0.62;0.00;0.00;0.62;1.90;0.87;;;22.00;23.40;;;;;;2245415;61;20372;-65
2021/03/17 02:10:16;0.00;0.00;0.62;0.00;0.00;0.62;2.33;1.13;;;22.00;23.40;;;;;;2245315;61;20402;-64
2021/03/17 02:13:41;0.00;0.00;0.62;0.00;0.00;0.62;2.20;1.00;;;22.00;23.40;;;;;;2246118;61;20365;-66
2021/03/17 02:16:30;0.00;0.00;0.62;0.00;0.00;0.62;1.73;1.03;;;21.90;23.30;;;;;;2245218;61;20367;-67
2021/03/17 02:20:02;0.00;0.00;0.62;0.00;0.00;0.62;2.67;1.23;;;21.90;23.30;;;;;;2245803;61;20387;-64
2021/03/17 02:22:49;0.00;0.00;0.62;0.00;0.00;0.62;2.13;1.07;;;21.90;23.30;;;;;;2241686;61;20380;-62
2021/03/17 02:26:16;0.00;0.00;0.62;0.00;0.00;0.62;3.13;1.23;;;21.90;23.30;;;;;;2245829;61;20693;-63
2021/03/17 02:29:33;0.00;0.00;0.62;0.00;0.00;0.62;2.87;1.20;;;21.80;23.30;;;;;;2245546;61;20823;-64
2021/03/17 02:32:44;0.00;0.00;0.62;0.00;0.00;0.62;2.47;1.20;;;21.80;23.30;;;;;;2245470;61;20380;-64
2021/03/17 02:35:31;0.00;0.00;0.62;0.00;0.00;0.62;2.20;1.00;;;21.80;23.30;;;;;;2245839;61;20360;-65
2021/03/17 02:38:16;0.00;0.00;0.62;0.00;0.00;0.62;2.97;1.30;;;21.70;23.20;;;;;;2244872;61;20415;-64
2021/03/17 02:41:02;0.00;0.00;0.62;0.00;0.00;0.62;2.60;1.37;;;21.70;23.30;;;;;;2245817;61;20369;-65
2021/03/17 02:43:53;0.00;0.00;0.62;0.00;0.00;0.62;3.20;1.53;;;21.70;23.20;;;;;;2245377;61;20368;-66
2021/03/17 02:46:40;0.00;0.00;0.62;0.00;0.00;0.62;3.03;1.37;;;21.70;23.20;;;;;;2245219;61;20364;-63
2021/03/17 02:49:29;0.00;0.00;0.62;0.00;0.00;0.62;2.00;1.00;;;21.70;23.20;;;;;;2245637;61;20505;-63
2021/03/17 02:52:15;0.00;0.00;0.62;0.00;0.00;0.62;2.27;1.10;;;21.70;23.30;;;;;;2245343;61;20383;-64
2021/03/17 02:55:02;0.00;0.00;0.62;0.00;0.00;0.62;2.60;1.07;;;21.70;23.30;;;;;;2245802;61;20386;-63
2021/03/17 02:57:48;0.00;0.00;0.62;0.00;0.00;0.62;3.53;1.00;;;21.60;23.20;;;;;;2245536;61;20386;-65
2021/03/17 03:00:33;0.00;0.00;0.62;0.00;0.00;0.62;2.03;1.30;;;21.60;23.20;;;;;;2245160;61;20367;-62
2021/03/17 03:03:20;0.00;0.00;0.62;0.00;0.00;0.62;1.80;1.10;;;21.60;23.20;;;;;;2245689;61;20407;-67
2021/03/17 03:06:06;0.00;0.00;0.62;0.00;0.00;0.62;1.97;1.00;;;21.60;23.20;;;;;;2245374;61;20370;-62
2021/03/17 03:08:53;0.00;0.00;0.62;0.00;0.00;0.62;1.57;0.97;;;21.60;23.30;;;;;;2244672;61;20966;-64
2021/03/17 03:11:38;0.00;0.00;0.62;0.00;0.00;0.62;3.80;1.77;;;21.50;23.20;;;;;;2245747;61;20372;-64
2021/03/17 03:14:25;0.00;0.00;0.62;0.00;0.00;0.62;2.20;0.97;;;21.60;23.30;;;;;;2245400;61;20571;-62
2021/03/17 03:17:12;0.00;0.00;0.62;0.00;0.00;0.62;2.80;1.20;;;21.50;23.30;;;;;;2245581;61;20363;-61
2021/03/17 03:19:59;0.00;0.00;0.62;0.00;0.00;0.62;2.10;1.60;;;21.50;23.30;;;;;;2245651;61;20522;-62
2021/03/17 03:22:45;0.00;0.00;0.62;0.00;0.00;0.62;2.87;1.17;;;21.50;23.30;;;;;;2244959;61;20830;-64
2021/03/17 03:25:31;0.00;0.00;0.62;0.00;0.00;0.62;3.00;1.20;;;21.50;23.30;;;;;;2245734;61;20394;-62
2021/03/17 03:28:18;0.00;0.00;0.62;0.00;0.00;0.62;2.00;1.20;;;21.50;23.30;;;;;;2245249;61;20468;-65
2021/03/17 03:31:03;0.00;0.00;0.62;0.00;0.00;0.62;2.30;1.00;;;21.40;23.20;;;;;;2245273;61;20416;-64
2021/03/17 03:33:48;0.00;0.00;0.62;0.00;0.00;0.62;1.43;0.80;;;21.40;23.20;;;;;;2245844;61;20363;-64
2021/03/17 03:36:33;0.00;0.00;0.62;0.00;0.00;0.62;2.10;0.90;;;21.40;23.20;;;;;;2245176;61;20372;-63
2021/03/17 03:39:17;0.00;0.00;0.62;0.00;0.00;0.62;3.37;1.10;;;21.40;23.20;;;;;;2245536;61;20402;-64
2021/03/17 03:42:03;0.00;0.00;0.62;0.00;0.00;0.62;2.60;1.10;;;21.40;23.20;;;;;;2245683;61;20417;-66
2021/03/17 03:44:48;0.00;0.00;0.62;0.00;0.00;0.62;3.17;1.00;;;21.40;23.20;;;;;;2244923;61;20620;-62
2021/03/17 03:47:33;0.00;0.00;0.62;0.00;0.00;0.62;2.27;1.47;;;21.40;23.20;;;;;;2245721;61;20592;-63
2021/03/17 03:50:22;0.00;0.00;0.62;0.00;0.00;0.62;1.50;1.13;;;21.30;23.10;;;;;;2244875;61;20394;-65
2021/03/17 03:53:17;0.00;0.00;0.62;0.00;0.00;0.62;2.53;1.20;;;21.30;23.10;;;;;;2245179;61;20371;-65
2021/03/17 03:56:07;0.00;0.00;0.62;0.00;0.00;0.62;2.30;1.10;;;21.30;23.20;;;;;;2245767;61;20379;-61
2021/03/17 03:58:58;0.00;0.00;0.62;0.00;0.00;0.62;1.80;1.03;;;21.30;23.20;;;;;;2244995;61;20383;-65
2021/03/17 04:01:47;0.00;0.00;0.62;0.00;0.00;0.62;3.33;1.30;;;21.30;23.20;;;;;;2245218;61;20458;-66
2021/03/17 04:04:38;0.00;0.00;0.62;0.00;0.00;0.62;3.27;1.20;;;21.30;23.20;;;;;;2245566;61;20400;-65
2021/03/17 04:07:25;0.00;0.00;0.62;0.00;0.00;0.62;1.63;0.90;;;21.30;23.20;;;;;;2244888;61;20365;-64
2021/03/17 04:10:12;0.00;0.00;0.62;0.00;0.00;0.62;4.87;1.73;;;21.20;23.10;;;;;;2245712;61;20697;-60
2021/03/17 04:12:58;0.00;0.00;0.62;0.00;0.00;0.62;2.23;1.20;;;21.20;23.10;;;;;;2245472;61;20683;-65
2021/03/17 04:15:45;0.00;0.00;0.62;0.00;0.00;0.62;3.70;1.40;;;21.20;23.10;;;;;;2245427;61;20409;-66
2021/03/17 04:18:34;0.00;0.00;0.62;0.00;0.00;0.62;2.33;1.17;;;21.20;23.20;;;;;;2245656;61;20594;-64
2021/03/17 04:21:25;0.00;0.00;0.62;0.00;0.00;0.62;3.50;1.40;;;21.20;23.10;;;;;;2245096;61;20368;-63
2021/03/17 04:24:09;0.00;0.00;0.62;0.00;0.00;0.62;2.70;1.10;;;21.20;23.10;;;;;;2245214;61;20484;-65
2021/03/17 04:26:57;0.00;0.00;0.62;0.00;0.00;0.62;1.80;0.90;;;21.20;23.10;;;;;;2245525;61;20367;-67
2021/03/17 04:29:45;0.00;0.00;0.62;0.00;0.00;0.62;3.03;1.40;;;21.20;23.10;;;;;;2245253;61;20405;-60
2021/03/17 04:32:32;0.00;0.00;0.62;0.00;0.00;0.62;2.67;1.33;;;21.10;23.10;;;;;;2245708;61;20372;-64
2021/03/17 04:35:17;0.00;0.00;0.62;0.00;0.00;0.62;2.60;1.20;;;21.10;23.10;;;;;;2245438;61;20367;-62
2021/03/17 04:38:02;0.00;0.00;0.62;0.00;0.00;0.62;3.20;1.50;;;21.10;23.10;;;;;;2245282;61;20871;-63
2021/03/17 04:40:47;0.00;0.00;0.62;0.00;0.00;0.62;2.63;1.10;;;21.10;23.10;;;;;;2245644;61;20361;-61
2021/03/17 04:43:35;0.00;0.00;0.62;0.00;0.00;0.62;2.30;1.10;;;21.10;23.10;;;;;;2245007;61;20413;-64
2021/03/17 04:46:21;0.00;0.00;0.62;0.00;0.00;0.62;3.00;1.10;;;21.10;23.10;;;;;;2245640;61;20364;-62
2021/03/17 04:49:07;0.00;0.00;0.62;0.00;0.00;0.62;2.10;1.07;;;21.10;23.10;;;;;;2245400;61;20390;-67
2021/03/17 04:51:54;0.00;0.00;0.62;0.00;0.00;0.62;2.60;1.13;;;21.00;23.00;;;;;;2245348;61;20372;-65
2021/03/17 04:54:39;0.00;0.00;0.62;0.00;0.00;0.62;3.97;1.73;;;21.00;23.00;;;;;;2245599;61;20368;-64
2021/03/17 04:57:27;0.00;0.00;0.62;0.00;0.00;0.62;2.80;1.30;;;21.10;23.10;;;;;;2247525;61;20447;-61
2021/03/17 05:00:14;0.00;0.00;0.62;0.00;0.00;0.62;1.60;1.00;;;21.00;23.10;;;;;;2244899;61;20597;-64
2021/03/17 05:03:01;0.00;0.00;0.62;0.00;0.00;0.62;1.83;1.10;;;21.00;23.10;;;;;;2245526;61;20833;-63
2021/03/17 05:05:50;0.00;0.00;0.62;0.00;0.00;0.62;2.97;1.30;;;21.00;23.00;;;;;;2244944;61;20636;-62
2021/03/17 05:08:41;0.00;0.00;0.62;0.00;0.00;0.62;2.20;1.20;;;21.00;23.10;;;;;;2244977;61;20376;-65
2021/03/17 05:11:28;0.00;0.00;0.62;0.00;0.00;0.62;2.10;1.20;;;21.00;23.10;;;;;;2245425;61;20685;-64
2021/03/17 05:14:14;0.00;0.00;0.62;0.00;0.00;0.62;2.70;1.30;;;21.00;23.00;;;;;;2245257;61;20710;-66
2021/03/17 05:17:00;0.00;0.00;0.62;0.00;0.00;0.62;1.80;1.27;;;21.00;23.00;;;;;;2245492;61;20386;-65
2021/03/17 05:19:44;0.00;0.00;0.62;0.00;0.00;0.62;1.93;1.00;;;21.00;23.00;;;;;;2245440;61;20409;-67
2021/03/17 05:22:31;0.00;0.00;0.62;0.00;0.00;0.62;3.17;1.50;;;21.00;23.00;;;;;;2245229;61;20366;-62
2021/03/17 05:25:19;0.00;0.00;0.62;0.00;0.00;0.62;2.57;1.20;;;21.00;23.00;;;;;;2245740;61;20587;-64
2021/03/17 05:28:04;0.00;0.00;0.62;0.00;0.00;0.62;2.10;0.97;;;21.00;23.00;;;;;;2244926;61;20405;-63
2021/03/17 05:30:52;0.00;0.00;0.62;0.00;0.00;0.62;1.47;0.93;;;21.00;23.00;;;;;;2245509;61;20365;-62
2021/03/17 05:33:37;0.00;0.00;0.62;0.00;0.00;0.62;2.27;1.10;;;20.90;22.90;;;;;;2245477;61;20404;-64
2021/03/17 05:36:21;0.00;0.00;0.62;0.00;0.00;0.62;3.00;1.17;;;20.90;22.90;;;;;;2245530;61;20414;-61
2021/03/17 05:39:07;0.00;0.00;0.62;0.00;0.00;0.62;2.73;0.90;;;20.90;22.90;;;;;;2246254;61;20651;-63
2021/03/17 05:41:52;0.00;0.00;0.62;0.00;0.00;0.62;3.03;1.17;;;20.90;23.00;;;;;;2246095;61;20591;-67
2021/03/17 05:44:36;0.00;0.00;0.62;0.00;0.00;0.62;2.80;1.20;;;20.90;23.00;;;;;;2245854;61;20767;-67
2021/03/17 05:47:22;0.00;0.00;0.62;0.00;0.00;0.62;3.37;1.40;;;20.90;23.00;;;;;;2246292;61;20432;-63
2021/03/17 05:50:09;0.00;0.00;0.62;0.00;0.00;0.62;4.53;1.03;;;20.90;23.00;;;;;;2245461;61;20685;-62
2021/03/17 05:52:53;0.00;0.00;0.62;0.00;0.00;0.62;2.20;0.97;;;20.80;22.90;;;;;;2246292;61;20392;-61
2021/03/17 05:55:39;0.00;0.00;0.62;0.00;0.00;0.62;3.93;1.77;;;20.80;22.90;;;;;;2246383;61;20477;-65
2021/03/17 05:58:24;0.00;0.00;0.62;0.00;0.00;0.62;3.30;1.60;;;20.90;22.90;;;;;;2245602;61;20390;-63
2021/03/17 06:01:09;0.00;0.00;0.62;0.00;0.00;0.62;3.37;1.57;;;20.80;22.80;;;;;;2246311;61;20363;-63
2021/03/17 06:03:55;0.00;0.00;0.62;0.00;0.00;0.62;3.10;1.50;;;20.80;22.80;;;;;;2246015;61;20391;-67
2021/03/17 06:06:44;0.00;0.00;0.62;0.00;0.00;0.62;3.47;1.57;;;20.80;22.80;;;;;;2245770;61;20402;-65
2021/03/17 06:09:32;0.00;0.00;0.62;0.00;0.00;0.62;3.00;1.47;;;20.80;22.90;;;;;;2248462;61;20403;-64
2021/03/17 06:12:20;0.00;0.00;0.62;0.00;0.00;0.62;4.07;1.33;;;20.80;22.90;;;;;;2245463;61;20756;-65
2021/03/17 06:15:07;0.00;0.00;0.62;0.00;0.00;0.62;4.43;1.77;;;20.80;22.90;;;;;;2246294;61;20495;-63
2021/03/17 06:17:58;0.00;0.00;0.62;0.00;0.00;0.62;4.53;2.10;;;20.80;22.90;;;;;;2246053;61;20693;-63
2021/03/17 06:20:43;0.00;0.00;0.62;0.00;0.00;0.62;2.50;1.50;;;20.80;22.90;;;;;;2245606;61;20363;-63
2021/03/17 06:23:28;0.00;0.00;0.62;0.00;0.00;0.62;4.90;2.17;;;20.70;22.90;;;;;;2245763;61;20626;-65
2021/03/17 06:26:13;0.00;0.00;0.62;0.00;0.00;0.62;3.73;2.23;;;20.70;22.80;;;;;;2245764;61;20380;-65
2021/03/17 06:28:59;0.00;0.00;0.62;0.00;0.00;0.62;4.20;2.40;;;20.70;22.80;;;;;;2245760;61;20416;-62
2021/03/17 06:31:46;0.00;0.00;0.62;0.00;0.00;0.62;5.00;2.30;;;20.70;22.90;;;;;;2246176;61;20372;-65
2021/03/17 06:34:31;0.00;0.00;0.62;0.00;0.00;0.62;4.37;2.77;;;20.70;22.90;;;;;;2243754;61;20377;-64
2021/03/17 06:37:16;0.00;0.00;0.62;0.00;0.00;0.62;4.00;2.00;;;20.70;22.90;;;;;;2246113;61;20364;-65
2021/03/17 06:40:00;0.00;0.00;0.62;0.00;0.00;0.62;2.83;1.90;;;20.70;22.80;;;;;;2246252;61;20378;-66
2021/03/17 06:42:45;0.00;0.00;0.62;0.00;0.00;0.62;4.57;2.60;;;20.70;22.90;;;;;;2245543;61;20440;-67
2021/03/17 06:45:37;0.00;0.00;0.62;0.00;0.00;0.62;3.80;1.90;;;20.70;22.80;;;;;;2245839;61;20403;-66
2021/03/17 06:48:25;0.00;0.00;0.62;0.00;0.00;0.62;3.20;2.10;;;20.70;22.80;;;;;;2245144;61;20396;-64
2021/03/17 06:51:11;0.00;0.00;0.62;0.00;0.00;0.62;2.83;1.50;;;20.60;22.70;;;;;;2245355;61;20431;-64
2021/03/17 06:53:59;0.00;0.00;0.62;0.00;0.00;0.62;2.60;1.80;;;20.60;22.70;;;;;;2245746;61;20365;-64
2021/03/17 06:56:46;0.00;0.00;0.62;0.00;0.00;0.62;3.50;1.90;;;20.60;22.70;;;;;;2244769;61;20817;-66
2021/03/17 06:59:31;0.00;0.00;0.62;0.00;0.00;0.62;3.40;2.07;;;20.60;22.60;;;;;;2245695;61;20610;-62
2021/03/17 07:02:19;0.00;0.00;0.62;0.00;0.00;0.62;2.97;1.80;;;20.60;22.70;;;;;;2245641;61;20370;-64
2021/03/17 07:05:04;0.00;0.00;0.62;0.00;0.00;0.62;2.93;1.73;;;20.60;22.70;;;;;;2245261;61;20411;-64
2021/03/17 07:07:51;0.00;0.00;0.62;0.00;0.00;0.62;3.43;1.33;;;20.50;22.70;;;;;;2245573;61;20422;-65
2021/03/17 07:10:40;0.00;0.00;0.62;0.00;0.00;0.62;2.43;1.30;;;20.50;22.70;;;;;;2245214;61;20394;-64
2021/03/17 07:13:26;0.00;0.00;0.62;0.00;0.00;0.62;3.17;1.50;;;20.50;22.70;;;;;;2245308;61;20389;-66
2021/03/17 07:16:11;0.00;0.00;0.62;0.00;0.00;0.62;3.10;1.53;;;20.50;22.80;;;;;;2245647;61;20388;-67
2021/03/17 07:18:56;0.00;0.00;0.62;0.00;0.00;0.62;3.07;1.50;;;20.50;22.80;;;;;;2247220;61;20389;-62
2021/03/17 07:21:41;0.00;0.00;0.62;0.00;0.00;0.62;3.37;1.70;;;20.50;22.80;;;;;;2245665;61;20383;-61
2021/03/17 07:24:26;0.00;0.00;0.62;0.00;0.00;0.62;2.40;1.20;;;20.50;22.80;;;;;;2245571;61;20576;-63
2021/03/17 07:27:16;0.00;0.00;0.62;0.00;0.00;0.62;2.50;1.20;;;20.50;22.80;;;;;;2245054;61;20395;-62
2021/03/17 07:30:11;0.00;0.00;0.62;0.00;0.00;0.62;1.73;1.00;;;20.50;22.90;;;;;;2245512;61;20391;-66
2021/03/17 07:32:59;0.00;0.00;0.62;0.00;0.00;0.62;2.20;1.40;;;20.50;22.90;;;;;;2245326;61;20392;-66
2021/03/17 07:35:45;0.00;0.00;0.62;0.00;0.00;0.62;2.33;1.10;;;20.50;22.90;;;;;;2245235;61;20369;-64
2021/03/17 07:38:30;0.00;0.00;0.62;0.00;0.00;0.62;1.80;1.10;;;20.50;22.90;;;;;;2247749;61;20501;-62
2021/03/17 07:41:14;0.00;0.00;0.62;0.00;0.00;0.62;1.93;1.00;;;20.60;23.00;;;;;;2244829;61;20392;-65
2021/03/17 07:44:02;0.00;0.00;0.62;0.00;0.00;0.62;3.07;1.10;;;20.60;23.00;;;;;;2245761;61;20468;-61
2021/03/17 07:46:48;0.00;0.00;0.62;0.00;0.00;0.62;3.67;1.10;;;20.50;22.90;;;;;;2245449;61;20748;-63
2021/03/17 07:49:35;0.00;0.00;0.62;0.00;0.00;0.62;1.70;1.10;;;20.60;23.00;;;;;;2245149;61;20388;-64
2021/03/17 07:52:29;0.00;0.00;0.62;0.00;0.00;0.62;1.70;0.80;;;20.60;23.00;;;;;;2245471;61;20602;-62
2021/03/17 07:55:16;0.00;0.00;0.62;0.00;0.00;0.62;1.57;0.93;;;20.60;23.00;;;;;;2245214;61;20691;-65
2021/03/17 07:58:01;0.00;0.00;0.62;0.00;0.00;0.62;1.90;1.23;;;20.60;23.00;;;;;;2247375;61;20407;-62
2021/03/17 08:00:47;0.00;0.00;0.62;0.00;0.00;0.62;1.60;1.10;;;20.60;23.00;;;;;;2245355;61;20755;-63
2021/03/17 08:03:32;0.00;0.00;0.62;0.00;0.00;0.62;1.20;0.80;;;20.60;23.00;;;;;;2244765;61;20404;-66
2021/03/17 08:06:18;0.00;0.00;0.62;0.00;0.00;0.62;1.70;1.00;;;20.60;23.00;;;;;;2245406;61;20603;-63
2021/03/17 08:09:05;0.00;0.00;0.62;0.00;0.00;0.62;1.43;1.10;;;20.60;23.10;;;;;;2244990;61;20421;-65
2021/03/17 08:11:52;0.00;0.00;0.62;0.00;0.00;0.62;1.27;0.77;;;20.60;23.10;;;;;;2245081;61;20420;-66
2021/03/17 08:14:41;0.00;0.00;0.62;0.00;0.00;0.62;3.73;1.30;;;20.60;23.10;;;;;;2245446;61;20387;-66
2021/03/17 08:17:31;0.00;0.00;0.62;0.00;0.00;0.62;1.70;0.90;;;20.70;23.20;;;;;;2245016;61;20402;-63
2021/03/17 08:20:30;0.00;0.00;0.62;0.00;0.00;0.62;1.63;0.93;;;20.60;23.10;;;;;;1684967;73;20478;-61
2021/03/17 08:23:38;0.00;0.00;0.62;0.00;0.00;0.62;2.07;1.07;;;20.70;23.20;;;;;;2276691;61;20668;-65
2021/03/17 08:26:45;0.00;0.00;0.62;0.00;0.00;0.62;1.40;0.80;;;20.70;23.20;;;;;;2276443;61;20360;-61
2021/03/17 08:29:36;0.00;0.00;0.62;0.00;0.00;0.62;1.67;1.10;;;20.70;23.20;;;;;;2276613;61;20445;-64
2021/03/17 08:32:22;0.00;0.00;0.62;0.00;0.00;0.62;1.40;0.70;;;20.70;23.20;;;;;;2276547;61;20402;-63
2021/03/17 08:35:08;0.00;0.00;0.62;0.00;0.00;0.62;1.97;0.90;;;20.70;23.20;;;;;;2276568;61;20362;-62
2021/03/17 08:37:55;0.00;0.00;0.62;0.00;0.00;0.62;1.53;0.90;;;20.70;23.20;;;;;;2276661;61;20377;-64
2021/03/17 08:40:47;0.00;0.00;0.62;0.00;0.00;0.62;2.17;1.10;;;20.70;23.20;;;;;;2276053;61;20543;-61
2021/03/17 08:43:47;0.00;0.00;0.62;0.00;0.00;0.62;1.30;0.80;;;20.70;23.20;;;;;;2276659;61;20353;-61
2021/03/17 08:46:37;0.00;0.00;0.62;0.00;0.00;0.62;1.20;0.70;;;20.70;23.20;;;;;;2276366;61;20357;-62
2021/03/17 08:49:31;0.00;0.00;0.62;0.00;0.00;0.62;1.77;0.83;;;20.80;23.30;;;;;;2276099;61;20462;-61
2021/03/17 08:52:18;0.00;0.00;0.62;0.00;0.00;0.62;1.97;0.97;;;20.80;23.30;;;;;;2276780;61;20352;-60
2021/03/17 08:55:13;0.00;0.00;0.62;0.00;0.00;0.62;2.57;1.20;;;20.80;23.30;;;;;;2275460;61;20399;-64
2021/03/17 08:58:07;0.00;0.00;0.62;0.00;0.00;0.62;1.57;0.83;;;20.80;23.30;;;;;;2276527;61;20377;-65
2021/03/17 09:00:59;0.00;0.00;0.62;0.00;0.00;0.62;1.60;0.90;;;20.90;23.40;;;;;;2276484;61;20358;-60
2021/03/17 09:03:47;0.00;0.00;0.62;0.00;0.00;0.62;1.43;0.80;;;20.80;23.30;;;;;;2276075;61;20360;-65
2021/03/17 09:06:32;0.00;0.00;0.62;0.00;0.00;0.62;4.13;1.13;;;20.90;23.30;;;;;;2276606;61;20357;-64
2021/03/17 09:09:17;0.00;0.00;0.62;0.00;0.00;0.62;1.67;0.90;;;20.90;23.30;;;;;;2276233;61;20763;-66
2021/03/17 09:12:04;0.00;0.00;0.62;0.00;0.00;0.62;1.70;0.90;;;20.90;23.30;;;;;;2276299;61;20356;-64
2021/03/17 09:14:49;0.00;0.00;0.62;0.00;0.00;0.62;1.40;0.80;;;20.90;23.30;;;;;;2276850;61;20370;-64
2021/03/17 09:17:33;0.00;0.00;0.62;0.00;0.00;0.62;1.80;0.90;;;21.00;23.30;;;;;;2275728;61;20388;-63
2021/03/17 09:20:31;0.00;0.00;0.62;0.00;0.00;0.62;1.60;0.90;;;20.90;23.20;;;;;;2276665;61;20449;-63
2021/03/17 09:23:18;0.00;0.00;0.62;0.00;0.00;0.62;1.50;0.97;;;21.00;23.30;;;;;;2276311;61;20741;-63
2021/03/17 09:26:03;0.00;0.00;0.62;0.00;0.00;0.62;1.30;0.80;;;21.00;23.30;;;;;;2276150;61;20748;-64
2021/03/17 09:28:49;0.00;0.00;0.62;0.00;0.00;0.62;1.87;1.00;;;21.00;23.30;;;;;;2276722;61;20375;-64
2021/03/17 09:31:35;0.00;0.00;0.62;0.00;0.00;0.62;1.50;0.90;;;21.00;23.30;;;;;;2273622;61;20420;-62
2021/03/17 09:34:26;0.00;0.00;0.62;0.00;0.00;0.62;1.80;1.00;;;21.00;23.30;;;;;;2273774;61;20719;-63
2021/03/17 09:37:12;0.00;0.00;0.62;0.00;0.00;0.62;1.63;1.00;;;21.00;23.30;;;;;;2273817;61;20353;-63
2021/03/17 09:39:57;0.00;0.00;0.62;0.00;0.00;0.62;1.40;1.00;;;21.00;23.80;;;;;;2273198;61;20380;-63
2021/03/17 09:42:42;0.00;0.00;0.62;0.00;0.00;0.62;1.57;0.80;;;21.10;23.30;;;;;;2273992;61;20371;-62
2021/03/17 09:45:28;0.00;0.00;0.62;0.00;0.00;0.62;1.60;1.00;;;21.10;23.30;;;;;;2273405;61;20371;-65
2021/03/17 09:48:13;0.00;0.00;0.62;0.00;0.00;0.62;1.37;0.90;;;21.10;23.90;;;;;;2273318;61;20377;-65
2021/03/17 09:51:00;0.00;0.00;0.62;0.00;0.00;0.62;1.40;0.83;;;21.10;23.30;;;;;;2273808;61;20631;-63
2021/03/17 09:53:46;0.00;0.00;0.62;0.00;0.00;0.62;1.43;1.07;;;21.10;23.30;;;;;;2273537;61;20366;-66
2021/03/17 09:56:41;0.00;0.00;0.62;0.00;0.00;0.62;1.73;0.97;;;21.20;23.40;;;;;;2273530;61;20385;-63
2021/03/17 09:59:28;0.00;0.00;0.62;0.00;0.00;0.62;1.93;1.00;;;21.20;23.40;;;;;;2273667;61;20375;-64
2021/03/17 10:02:25;0.00;0.00;0.62;0.00;0.00;0.62;1.70;0.87;;;21.20;23.30;;;;;;2273010;61;20739;-65
2021/03/17 10:05:13;0.00;0.00;0.62;0.00;0.00;0.62;1.70;1.00;;;21.20;23.40;;;;;;2273840;61;20615;-65
2021/03/17 10:07:58;0.00;0.00;0.62;0.00;0.00;0.62;1.37;0.90;;;21.20;23.30;;;;;;2273226;61;20598;-65
2021/03/17 10:10:43;0.00;0.00;0.62;0.00;0.00;0.62;1.60;1.10;;;21.20;23.30;;;;;;2273343;61;20352;-65
2021/03/17 10:13:34;0.00;0.00;0.62;0.00;0.00;0.62;1.17;0.70;;;21.30;23.30;;;;;;2273743;61;20361;-64
2021/03/17 10:16:18;0.00;0.00;0.62;0.00;0.00;0.62;2.00;1.00;;;21.30;23.40;;;;;;2273289;61;20354;-64
2021/03/17 10:19:04;0.00;0.00;0.62;0.00;0.00;0.62;2.00;1.20;;;21.30;23.40;;;;;;2273724;61;20383;-63
2021/03/17 10:21:53;0.00;0.00;0.62;0.00;0.00;0.62;1.40;0.90;;;21.30;23.40;;;;;;2273679;61;20595;-63
2021/03/17 10:24:41;0.00;0.00;0.62;0.00;0.00;0.62;1.87;1.23;;;21.30;23.40;;;;;;2273242;61;20439;-63
2021/03/17 10:27:31;0.00;0.00;0.62;0.00;0.00;0.62;2.00;1.27;;;21.40;23.40;;;;;;2273563;61;20368;-64
2021/03/17 10:30:19;0.00;0.00;0.62;0.00;0.00;0.62;1.80;1.10;;;21.40;23.40;;;;;;2273333;61;20400;-64
2021/03/17 10:33:09;0.00;0.00;0.62;0.00;0.00;0.62;1.60;1.17;;;21.40;23.50;;;;;;2273364;61;20587;-62
2021/03/17 10:35:54;0.00;0.00;0.62;0.00;0.00;0.62;1.80;1.30;;;21.40;23.50;;;;;;2273920;61;20355;-63
2021/03/17 10:38:38;0.00;0.00;0.62;0.00;0.00;0.62;1.40;0.90;;;21.40;23.50;;;;;;2273120;61;20599;-62
2021/03/17 10:41:43;0.00;0.00;0.62;0.00;0.00;0.62;1.90;1.00;;;21.50;23.50;;;;;;2273938;61;20359;-64
2021/03/17 10:44:31;0.00;0.00;0.62;0.00;0.00;0.62;2.40;1.40;;;21.50;23.50;;;;;;2273621;61;20747;-63
2021/03/17 10:47:15;0.00;0.00;0.62;0.00;0.00;0.62;1.83;1.00;;;21.50;23.50;;;;;;2273456;61;20380;-62
2021/03/17 10:50:01;0.00;0.00;0.62;0.00;0.00;0.62;1.83;1.20;;;21.60;23.60;;;;;;2273865;61;20363;-65
2021/03/17 10:52:48;0.00;0.00;0.62;0.00;0.00;0.62;2.07;1.20;;;21.60;23.50;;;;;;2273695;61;20358;-65
2021/03/17 10:55:34;0.00;0.00;0.62;0.00;0.00;0.62;2.00;1.30;;;21.60;23.50;;;;;;2273645;61;20363;-65
2021/03/17 10:58:21;0.00;0.00;0.62;0.00;0.00;0.62;2.10;1.30;;;21.70;23.50;;;;;;2273636;61;20765;-66
2021/03/17 11:01:06;0.00;0.00;0.62;0.00;0.00;0.62;2.13;1.40;;;21.60;23.50;;;;;;2273262;61;20358;-61
2021/03/17 11:04:05;0.00;0.00;0.62;0.00;0.00;0.62;2.17;1.10;;;21.70;23.50;;;;;;2273815;61;20413;-65
2021/03/17 11:06:57;0.00;0.00;0.62;0.00;0.00;0.62;2.00;1.23;;;21.70;23.60;;;;;;2273518;61;20355;-63